Time;durP1;ratioP1;P1;durP2;ratioP2;P2;SDS_P1;SDS_P2;PMS_P1;PMS_P2;Temp;Humidity;BMP_temperature;BMP_pressure;BME280_temperature;BME280_humidity;BME280_pressure;Samples;Min_cycle;Max_cycle;Signal;HPM_P1;HPM_P2
2022/11/13 00:02:40;;;;;;;0.70;0.60;;;;;;;;;;5049571;28;21014;-78
2022/11/13 00:05:27;;;;;;;0.70;0.70;;;;;;;;;;5064900;28;20488;-79
2022/11/13 00:08:14;;;;;;;0.70;0.70;;;;;;;;;;5056582;28;20463;-78
2022/11/13 00:11:01;;;;;;;0.70;0.70;;;;;;;;;;5055293;28;20506;-78
2022/11/13 00:13:48;;;;;;;0.70;0.60;;;;;;;;;;5049503;28;20420;-80
2022/11/13 00:16:33;;;;;;;0.70;0.70;;;;;;;;;;5050957;28;20536;-78
2022/11/13 00:19:19;;;;;;;0.70;0.70;;;;;;;;;;5070540;28;20431;-78
2022/11/13 00:22:07;;;;;;;0.70;0.70;;;;;;;;;;5064429;28;20945;-77
2022/11/13 00:24:53;;;;;;;0.70;0.60;;;;;;;;;;5054203;28;20415;-77
2022/11/13 00:27:39;;;;;;;0.70;0.67;;;;;;;;;;5064414;28;20471;-79
2022/11/13 00:30:24;;;;;;;0.70;0.70;;;;;;;;;;5062842;28;20428;-80
2022/11/13 00:33:12;;;;;;;1.10;1.03;;;;;;;;;;5059004;28;20442;-78
2022/11/13 00:36:14;;;;;;;0.70;0.70;;;;;;;;;;5065015;28;20448;-78
2022/11/13 00:39:01;;;;;;;0.70;0.60;;;;;;;;;;5051965;28;20485;-77
2022/11/13 00:41:48;;;;;;;0.90;0.90;;;;;;;;;;5053887;28;20422;-77
2022/11/13 00:44:33;;;;;;;0.70;0.70;;;;;;;;;;5046865;28;20427;-79
2022/11/13 00:47:19;;;;;;;1.63;1.17;;;;;;;;;;5066289;28;20972;-79
2022/11/13 00:50:05;;;;;;;0.70;0.60;;;;;;;;;;5068305;28;20567;-78
2022/11/13 00:52:51;;;;;;;0.80;0.80;;;;;;;;;;5061973;28;20425;-79
2022/11/13 00:55:38;;;;;;;0.93;0.93;;;;;;;;;;5066968;28;20530;-79
2022/11/13 00:58:24;;;;;;;0.70;0.60;;;;;;;;;;5045356;28;20431;-79
2022/11/13 01:01:11;;;;;;;0.70;0.60;;;;;;;;;;5059333;28;20430;-79
2022/11/13 01:03:57;;;;;;;0.70;0.70;;;;;;;;;;5054043;28;20426;-79
2022/11/13 01:06:43;;;;;;;0.70;0.70;;;;;;;;;;5050589;28;20465;-79
2022/11/13 01:09:29;;;;;;;0.70;0.70;;;;;;;;;;5064368;28;20560;-79
2022/11/13 01:12:17;;;;;;;0.70;0.60;;;;;;;;;;5060680;28;20779;-80
2022/11/13 01:15:03;;;;;;;0.70;0.60;;;;;;;;;;5066912;28;20421;-78
2022/11/13 01:17:48;;;;;;;0.70;0.70;;;;;;;;;;5056212;28;20509;-77
2022/11/13 01:20:34;;;;;;;0.70;0.60;;;;;;;;;;5053545;28;20801;-77
2022/11/13 01:23:20;;;;;;;1.53;1.27;;;;;;;;;;5065184;28;20535;-77
2022/11/13 01:26:10;;;;;;;0.70;0.70;;;;;;;;;;5056176;28;20481;-77
2022/11/13 01:29:00;;;;;;;0.70;0.60;;;;;;;;;;5056174;28;20431;-78
2022/11/13 01:31:46;;;;;;;2.80;1.93;;;;;;;;;;5047257;28;20499;-78
2022/11/13 01:34:31;;;;;;;0.70;0.60;;;;;;;;;;5052546;28;20419;-78
2022/11/13 01:37:17;;;;;;;0.70;0.60;;;;;;;;;;5063280;28;20948;-77
2022/11/13 01:40:02;;;;;;;1.10;1.00;;;;;;;;;;5071027;28;20573;-77
2022/11/13 01:42:47;;;;;;;0.73;0.73;;;;;;;;;;5049691;28;20435;-79
2022/11/13 01:45:52;;;;;;;0.77;0.77;;;;;;;;;;5061922;28;20529;-78
2022/11/13 01:48:40;;;;;;;0.70;0.70;;;;;;;;;;5055090;28;20422;-77
2022/11/13 01:51:32;;;;;;;0.70;0.60;;;;;;;;;;5067894;28;20463;-81
2022/11/13 01:54:19;;;;;;;0.70;0.70;;;;;;;;;;5069519;28;20444;-77
2022/11/13 01:57:05;;;;;;;0.70;0.70;;;;;;;;;;5058750;28;20484;-77
2022/11/13 01:59:54;;;;;;;1.33;1.23;;;;;;;;;;5054809;28;20415;-78
2022/11/13 02:02:41;;;;;;;0.70;0.67;;;;;;;;;;5056417;28;20422;-77
2022/11/13 02:05:30;;;;;;;0.70;0.70;;;;;;;;;;5060362;28;20447;-78
2022/11/13 02:08:16;;;;;;;1.13;1.03;;;;;;;;;;5067904;28;20964;-78
2022/11/13 02:11:01;;;;;;;0.70;0.60;;;;;;;;;;5054008;28;20411;-77
2022/11/13 02:13:47;;;;;;;0.70;0.60;;;;;;;;;;5066161;28;20510;-76
2022/11/13 02:16:33;;;;;;;0.70;0.70;;;;;;;;;;5069900;28;20431;-77
2022/11/13 02:19:21;;;;;;;0.70;0.70;;;;;;;;;;5055748;28;20419;-77
2022/11/13 02:22:10;;;;;;;0.70;0.60;;;;;;;;;;5055323;28;20463;-77
2022/11/13 02:24:57;;;;;;;0.70;0.70;;;;;;;;;;5065960;28;20439;-78
2022/11/13 02:27:44;;;;;;;0.70;0.70;;;;;;;;;;5053485;28;20462;-79
2022/11/13 02:30:31;;;;;;;0.70;0.60;;;;;;;;;;5065414;28;20789;-79
2022/11/13 02:33:21;;;;;;;0.70;0.70;;;;;;;;;;5060041;28;20424;-79
2022/11/13 02:36:08;;;;;;;1.27;1.17;;;;;;;;;;5055678;28;20451;-77
2022/11/13 02:38:55;;;;;;;0.70;0.63;;;;;;;;;;5056131;28;20459;-80
2022/11/13 02:41:43;;;;;;;0.70;0.60;;;;;;;;;;5057084;28;20427;-77
2022/11/13 02:44:28;;;;;;;0.70;0.60;;;;;;;;;;5063122;28;20770;-78
2022/11/13 02:47:14;;;;;;;0.70;0.60;;;;;;;;;;5056124;28;20818;-80
2022/11/13 02:49:59;;;;;;;1.27;1.00;;;;;;;;;;5063933;28;20506;-79
2022/11/13 02:52:45;;;;;;;0.70;0.70;;;;;;;;;;5062242;28;20415;-79
2022/11/13 02:55:33;;;;;;;0.70;0.60;;;;;;;;;;5065345;28;20439;-79
2022/11/13 02:58:21;;;;;;;0.70;0.60;;;;;;;;;;5047318;28;20424;-80
2022/11/13 03:01:07;;;;;;;0.70;0.70;;;;;;;;;;5064930;28;20546;-79
2022/11/13 03:03:52;;;;;;;0.70;0.70;;;;;;;;;;5054764;28;20419;-80
2022/11/13 03:06:43;;;;;;;0.70;0.60;;;;;;;;;;5051447;28;20575;-77
2022/11/13 03:09:31;;;;;;;0.70;0.60;;;;;;;;;;5057983;28;20431;-77
2022/11/13 03:12:16;;;;;;;0.70;0.60;;;;;;;;;;5054242;28;20511;-78
2022/11/13 03:15:03;;;;;;;0.70;0.60;;;;;;;;;;5055218;28;20438;-78
2022/11/13 03:17:51;;;;;;;1.83;1.33;;;;;;;;;;5053255;28;20940;-77
2022/11/13 03:20:38;;;;;;;2.60;2.40;;;;;;;;;;5053710;28;20453;-77
2022/11/13 03:23:23;;;;;;;0.70;0.60;;;;;;;;;;5053542;28;20418;-77
2022/11/13 03:26:09;;;;;;;0.70;0.60;;;;;;;;;;5054400;28;20852;-77
2022/11/13 03:28:56;;;;;;;0.70;0.70;;;;;;;;;;5055346;28;20426;-77
2022/11/13 03:31:45;;;;;;;0.70;0.70;;;;;;;;;;5062235;28;20447;-77
2022/11/13 03:34:31;;;;;;;0.83;0.83;;;;;;;;;;5059951;28;20431;-76
2022/11/13 03:37:17;;;;;;;0.70;0.70;;;;;;;;;;5050807;28;20447;-77
2022/11/13 03:40:03;;;;;;;0.70;0.60;;;;;;;;;;5055711;28;20209;-77
2022/11/13 03:42:48;;;;;;;0.80;0.80;;;;;;;;;;5044306;28;20432;-78
2022/11/13 03:45:33;;;;;;;0.80;0.80;;;;;;;;;;5055609;28;20550;-77
2022/11/13 03:48:20;;;;;;;0.80;0.80;;;;;;;;;;5052649;28;20562;-78
2022/11/13 03:51:05;;;;;;;1.00;0.90;;;;;;;;;;5055732;28;20458;-79
2022/11/13 03:53:52;;;;;;;0.70;0.60;;;;;;;;;;5048487;28;20434;-78
2022/11/13 03:56:38;;;;;;;0.70;0.70;;;;;;;;;;5061075;28;20419;-78
2022/11/13 03:59:25;;;;;;;0.80;0.80;;;;;;;;;;5052339;28;20208;-77
2022/11/13 04:02:10;;;;;;;0.70;0.70;;;;;;;;;;5055750;28;20919;-77
2022/11/13 04:04:57;;;;;;;0.70;0.60;;;;;;;;;;5064132;28;20436;-78
2022/11/13 04:07:43;;;;;;;0.70;0.70;;;;;;;;;;5055014;28;20528;-76
2022/11/13 04:10:29;;;;;;;4.73;1.90;;;;;;;;;;5069531;28;20434;-77
2022/11/13 04:13:15;;;;;;;0.60;0.60;;;;;;;;;;5063634;28;20430;-78
2022/11/13 04:16:02;;;;;;;0.70;0.65;;;;;;;;;;5057680;28;20427;-77
2022/11/13 04:18:48;;;;;;;10.43;2.60;;;;;;;;;;5052673;28;20195;-78
2022/11/13 04:21:36;;;;;;;0.63;0.60;;;;;;;;;;5066834;28;20518;-77
2022/11/13 04:24:22;;;;;;;0.70;0.60;;;;;;;;;;5066084;28;20428;-78
2022/11/13 04:27:08;;;;;;;0.70;0.60;;;;;;;;;;5053260;28;20459;-78
2022/11/13 04:29:55;;;;;;;0.60;0.60;;;;;;;;;;5066361;28;20426;-77
2022/11/13 04:32:40;;;;;;;0.90;0.90;;;;;;;;;;5056967;28;20481;-76
2022/11/13 04:35:26;;;;;;;0.70;0.70;;;;;;;;;;5066081;28;20447;-76
2022/11/13 04:38:14;;;;;;;0.90;0.90;;;;;;;;;;5058978;28;20481;-77
2022/11/13 04:44:04;;;;;;;0.70;0.60;;;;;;;;;;5059000;28;20458;-76
2022/11/13 04:46:49;;;;;;;2.77;2.50;;;;;;;;;;5049031;28;20500;-77
2022/11/13 04:49:35;;;;;;;0.70;0.60;;;;;;;;;;5056636;28;20466;-78
2022/11/13 04:52:21;;;;;;;1.00;1.00;;;;;;;;;;5055500;28;20294;-77
2022/11/13 04:55:09;;;;;;;1.03;0.90;;;;;;;;;;5049956;28;20446;-77
2022/11/13 04:57:54;;;;;;;0.70;0.70;;;;;;;;;;5064949;28;20492;-78
2022/11/13 05:00:40;;;;;;;0.67;0.63;;;;;;;;;;5066502;28;20430;-77
2022/11/13 05:03:26;;;;;;;0.70;0.70;;;;;;;;;;5060493;28;20560;-77
2022/11/13 05:06:12;;;;;;;0.60;0.60;;;;;;;;;;5062376;28;20471;-78
2022/11/13 05:08:58;;;;;;;0.60;0.60;;;;;;;;;;5065520;28;20421;-77
2022/11/13 05:11:45;;;;;;;0.60;0.60;;;;;;;;;;5060096;28;20931;-77
2022/11/13 05:14:30;;;;;;;0.70;0.60;;;;;;;;;;5067553;28;20810;-77
2022/11/13 05:17:17;;;;;;;1.60;1.23;;;;;;;;;;5052077;28;20423;-77
2022/11/13 05:20:03;;;;;;;0.70;0.60;;;;;;;;;;5064190;28;20207;-78
2022/11/13 05:22:49;;;;;;;0.60;0.60;;;;;;;;;;5068188;28;20546;-78
2022/11/13 05:25:34;;;;;;;0.60;0.60;;;;;;;;;;5070527;28;20445;-78
2022/11/13 05:28:21;;;;;;;1.53;1.43;;;;;;;;;;5061301;28;20515;-79
2022/11/13 05:31:12;;;;;;;0.70;0.70;;;;;;;;;;5064685;28;20431;-78
2022/11/13 05:33:58;;;;;;;0.70;0.60;;;;;;;;;;5058317;28;20411;-78
2022/11/13 05:36:50;;;;;;;0.70;0.70;;;;;;;;;;5055491;28;20454;-76
2022/11/13 05:39:35;;;;;;;0.60;0.60;;;;;;;;;;5050567;28;20422;-76
2022/11/13 05:42:21;;;;;;;0.70;0.60;;;;;;;;;;5060086;28;20939;-77
2022/11/13 05:45:09;;;;;;;0.70;0.63;;;;;;;;;;5054889;28;20427;-76
2022/11/13 05:47:57;;;;;;;0.70;0.70;;;;;;;;;;5066157;28;20558;-77
2022/11/13 05:50:42;;;;;;;0.67;0.67;;;;;;;;;;5056960;28;20451;-77
2022/11/13 05:53:28;;;;;;;0.70;0.70;;;;;;;;;;5057247;28;20427;-78
2022/11/13 05:56:15;;;;;;;0.70;0.60;;;;;;;;;;5057099;28;20940;-76
2022/11/13 05:59:02;;;;;;;0.60;0.60;;;;;;;;;;5063391;28;20409;-76
2022/11/13 06:01:51;;;;;;;0.70;0.70;;;;;;;;;;5055508;28;20536;-78
2022/11/13 06:04:36;;;;;;;0.70;0.60;;;;;;;;;;5048851;28;20443;-77
2022/11/13 06:07:22;;;;;;;0.70;0.60;;;;;;;;;;5057573;28;20262;-77
2022/11/13 06:10:08;;;;;;;0.70;0.60;;;;;;;;;;5056767;28;20419;-77
2022/11/13 06:12:53;;;;;;;0.70;0.60;;;;;;;;;;5067661;28;20207;-77
2022/11/13 06:15:40;;;;;;;0.70;0.60;;;;;;;;;;5071305;28;20207;-77
2022/11/13 06:18:27;;;;;;;0.80;0.80;;;;;;;;;;5073290;28;20192;-76
2022/11/13 06:21:16;;;;;;;0.70;0.60;;;;;;;;;;5064083;28;20713;-77
2022/11/13 06:24:02;;;;;;;0.90;0.90;;;;;;;;;;5072197;28;20335;-78
2022/11/13 06:26:48;;;;;;;0.70;0.60;;;;;;;;;;5052281;28;20680;-76
2022/11/13 06:29:34;;;;;;;0.70;0.70;;;;;;;;;;5065996;28;20201;-77
2022/11/13 06:32:22;;;;;;;0.70;0.60;;;;;;;;;;5045873;28;20204;-77
2022/11/13 06:35:11;;;;;;;0.70;0.70;;;;;;;;;;5064068;28;20197;-76
2022/11/13 06:37:57;;;;;;;0.80;0.80;;;;;;;;;;5067119;28;20204;-78
2022/11/13 06:40:44;;;;;;;0.60;0.60;;;;;;;;;;5065651;28;20196;-77
2022/11/13 06:43:31;;;;;;;0.80;0.80;;;;;;;;;;5062376;28;20195;-76
2022/11/13 06:46:17;;;;;;;0.70;0.60;;;;;;;;;;5070984;28;20200;-75
2022/11/13 06:49:03;;;;;;;0.70;0.60;;;;;;;;;;5055490;28;20351;-76
2022/11/13 06:51:50;;;;;;;0.70;0.70;;;;;;;;;;5054827;28;20240;-77
2022/11/13 06:54:35;;;;;;;0.70;0.60;;;;;;;;;;5072265;28;20794;-76
2022/11/13 06:57:22;;;;;;;0.70;0.70;;;;;;;;;;5052713;28;20197;-76
2022/11/13 07:00:08;;;;;;;0.70;0.70;;;;;;;;;;5058684;28;20538;-75
2022/11/13 07:02:54;;;;;;;0.70;0.60;;;;;;;;;;5050645;28;20220;-76
2022/11/13 07:05:40;;;;;;;0.70;0.60;;;;;;;;;;5064397;28;20224;-76
2022/11/13 07:08:26;;;;;;;0.70;0.70;;;;;;;;;;5069414;28;20200;-75
2022/11/13 07:11:16;;;;;;;0.70;0.70;;;;;;;;;;5059449;28;20214;-75
2022/11/13 07:14:02;;;;;;;0.70;0.70;;;;;;;;;;5057406;28;20204;-75
2022/11/13 07:16:47;;;;;;;0.70;0.60;;;;;;;;;;5064842;28;20319;-75
2022/11/13 07:19:53;;;;;;;0.70;0.60;;;;;;;;;;5057414;28;20215;-75
2022/11/13 07:22:39;;;;;;;0.68;0.60;;;;;;;;;;5057628;28;20208;-76
2022/11/13 07:25:27;;;;;;;0.70;0.70;;;;;;;;;;5057511;28;20228;-76
2022/11/13 07:28:14;;;;;;;0.70;0.60;;;;;;;;;;5059380;28;20297;-76
2022/11/13 07:31:01;;;;;;;0.70;0.70;;;;;;;;;;5058409;28;20208;-77
2022/11/13 07:33:47;;;;;;;1.90;1.67;;;;;;;;;;5053842;28;20469;-75
2022/11/13 07:36:33;;;;;;;0.70;0.70;;;;;;;;;;5053488;28;20451;-76
2022/11/13 07:39:18;;;;;;;0.70;0.70;;;;;;;;;;5058080;28;20196;-79
2022/11/13 07:42:05;;;;;;;0.67;0.60;;;;;;;;;;5053286;28;20230;-78
2022/11/13 07:44:51;;;;;;;0.70;0.70;;;;;;;;;;5065216;28;20769;-77
2022/11/13 07:47:39;;;;;;;0.60;0.60;;;;;;;;;;5055795;28;20597;-77
2022/11/13 07:50:25;;;;;;;0.70;0.60;;;;;;;;;;5053075;28;20818;-77
2022/11/13 07:53:11;;;;;;;0.80;0.80;;;;;;;;;;5065872;28;20573;-77
2022/11/13 07:55:59;;;;;;;0.70;0.70;;;;;;;;;;5055914;28;20312;-76
2022/11/13 07:58:45;;;;;;;0.70;0.70;;;;;;;;;;5067545;28;20764;-76
2022/11/13 08:01:32;;;;;;;0.80;0.80;;;;;;;;;;5068223;28;20954;-77
2022/11/13 08:04:18;;;;;;;0.70;0.70;;;;;;;;;;5063953;28;20414;-75
2022/11/13 08:07:03;;;;;;;0.70;0.70;;;;;;;;;;5056927;28;20473;-75
2022/11/13 08:09:49;;;;;;;0.60;0.60;;;;;;;;;;5054676;28;20959;-77
2022/11/13 08:12:34;;;;;;;0.70;0.70;;;;;;;;;;5064260;28;20437;-78
2022/11/13 08:15:21;;;;;;;0.70;0.60;;;;;;;;;;5053723;28;20770;-78
2022/11/13 08:18:07;;;;;;;0.70;0.70;;;;;;;;;;5053463;28;20566;-78
2022/11/13 08:20:53;;;;;;;0.70;0.70;;;;;;;;;;5064308;28;20805;-77
2022/11/13 08:23:40;;;;;;;0.63;0.60;;;;;;;;;;5052236;28;20562;-78
2022/11/13 08:26:27;;;;;;;0.70;0.60;;;;;;;;;;5057661;28;20926;-79
2022/11/13 08:29:12;;;;;;;0.70;0.60;;;;;;;;;;5064779;28;20817;-78
2022/11/13 08:32:01;;;;;;;0.70;0.60;;;;;;;;;;5061496;28;20788;-79
2022/11/13 08:34:47;;;;;;;0.80;0.80;;;;;;;;;;5054569;28;20752;-79
2022/11/13 08:37:33;;;;;;;0.70;0.70;;;;;;;;;;5048232;28;20498;-78
2022/11/13 08:40:20;;;;;;;0.70;0.60;;;;;;;;;;5044856;28;20428;-78
2022/11/13 08:43:05;;;;;;;1.33;1.23;;;;;;;;;;5054378;28;20503;-77
2022/11/13 08:45:51;;;;;;;0.70;0.67;;;;;;;;;;5051993;28;20495;-79
2022/11/13 08:48:38;;;;;;;1.80;1.43;;;;;;;;;;5059639;28;20464;-77
2022/11/13 08:51:23;;;;;;;0.70;0.60;;;;;;;;;;5052214;28;20460;-77
2022/11/13 08:54:09;;;;;;;0.63;0.60;;;;;;;;;;5054592;28;20565;-77
2022/11/13 08:56:54;;;;;;;0.80;0.80;;;;;;;;;;5059176;28;20472;-77
2022/11/13 08:59:44;;;;;;;0.70;0.70;;;;;;;;;;5055695;28;20498;-79
2022/11/13 09:02:30;;;;;;;0.70;0.60;;;;;;;;;;5064829;28;20803;-79
2022/11/13 09:05:17;;;;;;;0.70;0.60;;;;;;;;;;5055164;28;21080;-78
2022/11/13 09:08:03;;;;;;;0.90;0.90;;;;;;;;;;5053760;28;20475;-78
2022/11/13 09:10:50;;;;;;;0.70;0.70;;;;;;;;;;5056088;28;20537;-77
2022/11/13 09:13:35;;;;;;;0.70;0.60;;;;;;;;;;5058033;28;20778;-77
2022/11/13 09:16:29;;;;;;;0.70;0.70;;;;;;;;;;5067125;28;20803;-76
2022/11/13 09:19:15;;;;;;;0.70;0.60;;;;;;;;;;5051530;28;20432;-76
2022/11/13 09:22:03;;;;;;;0.70;0.60;;;;;;;;;;5069453;28;20499;-78
2022/11/13 09:24:49;;;;;;;0.90;0.90;;;;;;;;;;5066563;28;20432;-78
2022/11/13 09:27:35;;;;;;;1.10;1.00;;;;;;;;;;5066684;28;20450;-78
2022/11/13 09:30:21;;;;;;;0.70;0.70;;;;;;;;;;5059236;28;20474;-77
2022/11/13 09:33:08;;;;;;;0.70;0.60;;;;;;;;;;5069096;28;20418;-78
2022/11/13 09:35:56;;;;;;;0.80;0.80;;;;;;;;;;5060954;28;20477;-80
2022/11/13 09:38:43;;;;;;;0.70;0.70;;;;;;;;;;5060607;28;20434;-80
2022/11/13 09:41:32;;;;;;;0.80;0.73;;;;;;;;;;5071722;28;20440;-81
2022/11/13 09:44:23;;;;;;;0.70;0.70;;;;;;;;;;5048828;28;20444;-80
2022/11/13 09:47:12;;;;;;;2.90;2.70;;;;;;;;;;5054783;28;20422;-81
2022/11/13 09:50:01;;;;;;;0.90;0.90;;;;;;;;;;5053036;28;20549;-81
2022/11/13 09:52:46;;;;;;;0.83;0.83;;;;;;;;;;5054400;28;20420;-82
2022/11/13 09:55:37;;;;;;;0.70;0.60;;;;;;;;;;5059137;28;20456;-82
2022/11/13 09:58:26;;;;;;;0.70;0.70;;;;;;;;;;5067993;28;20410;-82
2022/11/13 10:01:15;;;;;;;0.70;0.60;;;;;;;;;;5056884;28;20909;-82
2022/11/13 10:04:03;;;;;;;0.70;0.70;;;;;;;;;;5062481;28;20441;-82
2022/11/13 10:06:56;;;;;;;0.70;0.60;;;;;;;;;;5063513;28;20454;-83
2022/11/13 10:09:47;;;;;;;0.70;0.60;;;;;;;;;;5054046;28;20814;-81
2022/11/13 10:12:34;;;;;;;0.70;0.70;;;;;;;;;;5055723;28;20735;-82
2022/11/13 10:15:21;;;;;;;0.70;0.70;;;;;;;;;;5058532;28;20465;-82
2022/11/13 10:18:10;;;;;;;1.00;0.90;;;;;;;;;;5064605;28;20529;-82
2022/11/13 10:21:03;;;;;;;0.70;0.70;;;;;;;;;;5054278;28;20609;-83
2022/11/13 10:24:01;;;;;;;0.70;0.60;;;;;;;;;;5053945;28;20430;-82
2022/11/13 10:26:46;;;;;;;0.80;0.70;;;;;;;;;;5051298;28;20780;-83
2022/11/13 10:29:34;;;;;;;0.80;0.70;;;;;;;;;;5057488;28;20534;-82
2022/11/13 10:32:22;;;;;;;0.70;0.70;;;;;;;;;;5059162;28;20457;-79
2022/11/13 10:35:18;;;;;;;0.80;0.80;;;;;;;;;;5066078;28;20968;-80
2022/11/13 10:38:05;;;;;;;0.70;0.70;;;;;;;;;;5052600;28;20423;-80
2022/11/13 10:41:03;;;;;;;0.90;0.87;;;;;;;;;;5052806;28;20427;-81
2022/11/13 10:43:49;;;;;;;0.70;0.70;;;;;;;;;;5070309;28;20850;-82
2022/11/13 10:46:36;;;;;;;0.80;0.80;;;;;;;;;;5047729;28;20926;-81
2022/11/13 10:49:27;;;;;;;0.70;0.70;;;;;;;;;;5065221;28;20563;-80
2022/11/13 10:52:17;;;;;;;0.80;0.80;;;;;;;;;;5055016;28;20455;-79
2022/11/13 10:55:13;;;;;;;0.70;0.70;;;;;;;;;;5057865;28;20499;-81
2022/11/13 10:58:00;;;;;;;0.70;0.67;;;;;;;;;;5047736;28;20421;-81
2022/11/13 11:00:48;;;;;;;1.10;1.00;;;;;;;;;;5066137;28;20989;-81
2022/11/13 11:03:35;;;;;;;0.77;0.77;;;;;;;;;;5056483;28;20428;-81
2022/11/13 11:06:30;;;;;;;0.70;0.70;;;;;;;;;;5055277;28;20507;-82
2022/11/13 11:09:36;;;;;;;0.80;0.80;;;;;;;;;;5060977;28;21003;-84
2022/11/13 11:12:22;;;;;;;1.13;1.03;;;;;;;;;;5055416;28;20432;-82
2022/11/13 11:15:18;;;;;;;0.70;0.70;;;;;;;;;;5067869;28;20429;-83
2022/11/13 11:18:05;;;;;;;1.37;1.27;;;;;;;;;;5058875;28;20441;-84
2022/11/13 11:20:55;;;;;;;0.80;0.80;;;;;;;;;;5048299;28;20447;-83
2022/11/13 11:23:43;;;;;;;0.80;0.80;;;;;;;;;;5064455;28;20419;-82
2022/11/13 11:26:31;;;;;;;0.70;0.70;;;;;;;;;;5057517;28;20434;-84
2022/11/13 11:29:20;;;;;;;0.70;0.60;;;;;;;;;;5054861;28;20464;-82
2022/11/13 11:32:10;;;;;;;0.70;0.70;;;;;;;;;;5045814;28;20736;-84
2022/11/13 11:35:03;;;;;;;0.70;0.70;;;;;;;;;;5066727;28;20515;-82
2022/11/13 11:37:54;;;;;;;0.70;0.60;;;;;;;;;;5051976;28;20566;-83
2022/11/13 11:40:40;;;;;;;0.70;0.60;;;;;;;;;;5054526;28;20429;-84
2022/11/13 11:43:32;;;;;;;0.80;0.80;;;;;;;;;;5042453;28;20500;-82
2022/11/13 11:46:21;;;;;;;0.80;0.70;;;;;;;;;;5053958;28;21009;-83
2022/11/13 11:49:07;;;;;;;0.70;0.70;;;;;;;;;;5065613;28;20462;-84
2022/11/13 11:52:06;;;;;;;0.80;0.80;;;;;;;;;;5069100;28;20469;-84
2022/11/13 11:54:56;;;;;;;0.70;0.70;;;;;;;;;;5053686;28;20457;-84
2022/11/13 11:57:48;;;;;;;0.70;0.70;;;;;;;;;;5055988;28;20426;-85
2022/11/13 12:00:37;;;;;;;0.70;0.60;;;;;;;;;;5065008;28;20527;-84
2022/11/13 12:03:47;;;;;;;0.80;0.70;;;;;;;;;;5062479;28;20427;-84
2022/11/13 12:06:38;;;;;;;0.70;0.70;;;;;;;;;;5056399;28;20853;-84
2022/11/13 12:09:27;;;;;;;0.80;0.70;;;;;;;;;;5046455;28;20571;-83
2022/11/13 12:12:18;;;;;;;0.70;0.60;;;;;;;;;;5050707;28;20425;-86
2022/11/13 12:15:08;;;;;;;0.70;0.70;;;;;;;;;;5055046;28;20435;-82
2022/11/13 12:17:58;;;;;;;0.70;0.60;;;;;;;;;;5062153;28;20572;-84
2022/11/13 12:20:47;;;;;;;0.80;0.80;;;;;;;;;;5048404;28;20417;-85
2022/11/13 12:23:38;;;;;;;0.70;0.60;;;;;;;;;;5062888;28;20404;-86
2022/11/13 12:26:26;;;;;;;0.70;0.70;;;;;;;;;;5061197;28;20432;-86
2022/11/13 12:29:23;;;;;;;1.20;1.10;;;;;;;;;;5068567;28;20814;-85
2022/11/13 12:32:16;;;;;;;0.80;0.70;;;;;;;;;;5058866;28;20437;-85
2022/11/13 12:35:07;;;;;;;0.70;0.70;;;;;;;;;;5049529;28;20432;-85
2022/11/13 12:37:55;;;;;;;0.80;0.80;;;;;;;;;;5061231;28;20431;-85
2022/11/13 12:40:44;;;;;;;0.90;0.80;;;;;;;;;;5063136;28;20413;-85
2022/11/13 12:43:41;;;;;;;1.00;0.90;;;;;;;;;;5065068;28;20536;-85
2022/11/13 12:46:37;;;;;;;0.70;0.60;;;;;;;;;;5062102;28;20523;-83
2022/11/13 12:49:31;;;;;;;1.37;1.27;;;;;;;;;;5061530;28;20441;-86
2022/11/13 12:52:21;;;;;;;0.90;0.90;;;;;;;;;;5063869;28;20432;-83
2022/11/13 12:55:22;;;;;;;0.70;0.70;;;;;;;;;;5066687;28;20421;-85
2022/11/13 12:58:10;;;;;;;0.90;0.90;;;;;;;;;;5074338;28;20446;-84
2022/11/13 13:01:00;;;;;;;1.87;0.80;;;;;;;;;;5068944;28;20398;-84
2022/11/13 13:04:16;;;;;;;0.80;0.70;;;;;;;;;;5067260;28;20405;-85
2022/11/13 13:07:09;;;;;;;0.70;0.70;;;;;;;;;;5051055;28;20970;-83
2022/11/13 13:10:00;;;;;;;0.70;0.60;;;;;;;;;;5069522;28;20471;-85
2022/11/13 13:12:50;;;;;;;0.70;0.60;;;;;;;;;;5060058;28;20393;-83
2022/11/13 13:15:37;;;;;;;0.70;0.67;;;;;;;;;;5071760;28;20423;-84
2022/11/13 13:18:27;;;;;;;0.70;0.70;;;;;;;;;;5062535;28;20438;-83
2022/11/13 13:21:16;;;;;;;0.70;0.70;;;;;;;;;;5060029;28;20443;-83
2022/11/13 13:24:06;;;;;;;0.73;0.70;;;;;;;;;;5071850;28;20443;-83
2022/11/13 13:26:52;;;;;;;0.70;0.60;;;;;;;;;;5072216;28;20865;-84
2022/11/13 13:29:39;;;;;;;0.70;0.60;;;;;;;;;;5062592;28;20778;-83
2022/11/13 13:32:30;;;;;;;0.80;0.80;;;;;;;;;;5061385;28;20430;-83
2022/11/13 13:35:16;;;;;;;0.80;0.80;;;;;;;;;;5061012;28;20422;-82
2022/11/13 13:38:06;;;;;;;0.70;0.70;;;;;;;;;;5064773;28;20436;-82
2022/11/13 13:41:00;;;;;;;0.70;0.70;;;;;;;;;;5061715;28;20419;-82
2022/11/13 13:43:53;;;;;;;0.70;0.60;;;;;;;;;;5064619;28;20404;-82
2022/11/13 13:46:41;;;;;;;0.80;0.77;;;;;;;;;;5065017;28;20956;-82
2022/11/13 13:49:27;;;;;;;0.70;0.70;;;;;;;;;;5079308;28;20493;-82
2022/11/13 13:52:14;;;;;;;0.90;0.80;;;;;;;;;;5078186;28;21047;-82
2022/11/13 13:55:02;;;;;;;0.80;0.70;;;;;;;;;;5062551;28;20504;-83
2022/11/13 13:57:48;;;;;;;0.70;0.70;;;;;;;;;;5059535;28;20810;-83
2022/11/13 14:00:35;;;;;;;0.80;0.70;;;;;;;;;;5059845;28;20422;-84
2022/11/13 14:03:39;;;;;;;0.73;0.73;;;;;;;;;;5068194;28;20954;-82
2022/11/13 14:06:24;;;;;;;0.80;0.80;;;;;;;;;;5061938;28;20442;-82
2022/11/13 14:09:15;;;;;;;0.80;0.80;;;;;;;;;;5053335;28;20466;-82
2022/11/13 14:12:17;;;;;;;0.70;0.70;;;;;;;;;;5057552;28;20704;-82
2022/11/13 14:15:07;;;;;;;0.80;0.70;;;;;;;;;;5075225;28;20557;-82
2022/11/13 14:18:04;;;;;;;0.90;0.90;;;;;;;;;;5058897;28;20414;-81
2022/11/13 14:20:51;;;;;;;0.80;0.70;;;;;;;;;;5059469;28;20447;-81
2022/11/13 14:23:39;;;;;;;0.70;0.60;;;;;;;;;;5065642;28;20516;-81
2022/11/13 14:26:24;;;;;;;2.70;2.50;;;;;;;;;;5062638;28;20419;-81
2022/11/13 14:29:19;;;;;;;1.10;1.00;;;;;;;;;;5058536;28;20393;-82
2022/11/13 14:32:06;;;;;;;0.80;0.70;;;;;;;;;;5071023;28;20476;-82
2022/11/13 14:34:52;;;;;;;0.80;0.80;;;;;;;;;;5058701;28;21060;-81
2022/11/13 14:37:38;;;;;;;0.90;0.90;;;;;;;;;;5073461;28;20562;-82
2022/11/13 14:40:25;;;;;;;0.70;0.70;;;;;;;;;;5064461;28;21317;-81
2022/11/13 14:43:14;;;;;;;1.17;1.07;;;;;;;;;;5056327;28;21000;-83
2022/11/13 14:46:02;;;;;;;0.80;0.77;;;;;;;;;;5058374;28;20620;-82
2022/11/13 14:48:51;;;;;;;0.97;0.80;;;;;;;;;;5049177;28;20451;-83
2022/11/13 14:51:35;;;;;;;0.70;0.60;;;;;;;;;;5056625;28;20451;-82
2022/11/13 14:54:27;;;;;;;0.70;0.70;;;;;;;;;;5053261;28;20504;-83
2022/11/13 14:57:27;;;;;;;0.80;0.80;;;;;;;;;;5062344;28;20975;-81
2022/11/13 15:00:16;;;;;;;0.70;0.70;;;;;;;;;;5066149;28;20438;-81
2022/11/13 15:03:03;;;;;;;0.80;0.77;;;;;;;;;;5066457;28;20469;-83
2022/11/13 15:05:49;;;;;;;1.00;0.90;;;;;;;;;;5062725;28;20504;-82
2022/11/13 15:08:35;;;;;;;0.80;0.73;;;;;;;;;;5054224;28;20433;-82
2022/11/13 15:11:22;;;;;;;0.73;0.73;;;;;;;;;;5064434;28;20461;-82
2022/11/13 15:14:08;;;;;;;0.80;0.80;;;;;;;;;;5055102;28;20600;-83
2022/11/13 15:16:57;;;;;;;0.70;0.70;;;;;;;;;;5048541;28;20496;-82
2022/11/13 15:19:47;;;;;;;0.70;0.70;;;;;;;;;;5062181;28;20977;-84
2022/11/13 15:22:33;;;;;;;0.80;0.77;;;;;;;;;;5055285;28;20429;-82
2022/11/13 15:25:21;;;;;;;1.23;1.13;;;;;;;;;;5056547;28;20469;-84
2022/11/13 15:28:08;;;;;;;0.70;0.70;;;;;;;;;;5061186;28;20423;-83
2022/11/13 15:30:53;;;;;;;0.77;0.70;;;;;;;;;;5071964;28;20460;-82
2022/11/13 15:33:39;;;;;;;0.70;0.60;;;;;;;;;;5063897;28;20473;-83
2022/11/13 15:36:26;;;;;;;0.80;0.80;;;;;;;;;;5056117;28;20450;-82
2022/11/13 15:39:12;;;;;;;0.73;0.70;;;;;;;;;;5064659;28;20787;-82
2022/11/13 15:42:12;;;;;;;0.80;0.70;;;;;;;;;;5061055;28;20458;-83
2022/11/13 15:44:58;;;;;;;0.70;0.70;;;;;;;;;;5070494;28;20407;-84
2022/11/13 15:47:43;;;;;;;0.80;0.70;;;;;;;;;;5074572;28;20425;-84
2022/11/13 15:50:28;;;;;;;0.83;0.83;;;;;;;;;;5062966;28;20475;-82
2022/11/13 15:53:16;;;;;;;0.70;0.70;;;;;;;;;;5056306;28;20931;-84
2022/11/13 15:56:05;;;;;;;0.70;0.70;;;;;;;;;;5059045;28;20969;-84
2022/11/13 15:58:51;;;;;;;0.70;0.60;;;;;;;;;;5062669;28;21016;-84
2022/11/13 16:01:37;;;;;;;0.70;0.70;;;;;;;;;;5062546;28;20495;-84
2022/11/13 16:04:23;;;;;;;0.80;0.70;;;;;;;;;;5061412;28;20483;-82
2022/11/13 16:07:21;;;;;;;1.97;1.87;;;;;;;;;;5065300;28;20480;-82
2022/11/13 16:10:09;;;;;;;0.70;0.70;;;;;;;;;;5053821;28;20460;-82
2022/11/13 16:12:56;;;;;;;0.70;0.70;;;;;;;;;;5051520;28;20775;-81
2022/11/13 16:15:42;;;;;;;0.70;0.60;;;;;;;;;;5061392;28;20574;-79
2022/11/13 16:18:28;;;;;;;1.50;1.40;;;;;;;;;;5060254;28;20976;-79
2022/11/13 16:21:15;;;;;;;1.00;0.90;;;;;;;;;;5064773;28;20465;-82
2022/11/13 16:24:01;;;;;;;1.50;1.43;;;;;;;;;;5055199;28;20483;-81
2022/11/13 16:26:53;;;;;;;0.70;0.70;;;;;;;;;;5067717;28;20506;-85
2022/11/13 16:29:39;;;;;;;0.93;0.93;;;;;;;;;;5067675;28;20487;-85
2022/11/13 16:32:26;;;;;;;0.73;0.70;;;;;;;;;;5071229;28;20425;-83
2022/11/13 16:35:12;;;;;;;0.83;0.83;;;;;;;;;;5061346;28;20473;-83
2022/11/13 16:37:59;;;;;;;0.70;0.70;;;;;;;;;;5056161;28;20418;-84
2022/11/13 16:40:44;;;;;;;1.30;1.20;;;;;;;;;;5060780;28;20475;-84
2022/11/13 16:43:33;;;;;;;2.23;2.10;;;;;;;;;;5061302;28;20932;-84
2022/11/13 16:46:21;;;;;;;0.70;0.60;;;;;;;;;;5068385;28;20428;-84
2022/11/13 16:49:11;;;;;;;1.20;1.13;;;;;;;;;;5068798;28;20427;-83
2022/11/13 16:51:57;;;;;;;0.70;0.60;;;;;;;;;;5053033;28;20475;-83